Time;durP1;ratioP1;P1;durP2;ratioP2;P2;SDS_P1;SDS_P2;PMS_P1;PMS_P2;Temp;Humidity;BMP_temperature;BMP_pressure;BME280_temperature;BME280_humidity;BME280_pressure;Samples;Min_cycle;Max_cycle;Signal;HPM_P1;HPM_P2
2022/09/07 00:00:12;;;;;;;34.50;18.57;;;9.10;99.90;;;;;;5132320;27;20203;-64
2022/09/07 00:02:39;;;;;;;35.43;19.37;;;9.10;99.90;;;;;;5133937;27;20220;-64
2022/09/07 00:05:07;;;;;;;33.83;19.07;;;9.10;99.90;;;;;;5133945;27;20207;-65
2022/09/07 00:07:34;;;;;;;38.13;19.40;;;9.10;99.90;;;;;;5132980;27;20229;-64
2022/09/07 00:10:00;;;;;;;34.37;19.00;;;9.10;99.90;;;;;;5133411;27;20257;-65
2022/09/07 00:12:27;;;;;;;36.80;18.73;;;9.10;99.90;;;;;;5132589;27;20216;-66
2022/09/07 00:14:54;;;;;;;36.20;19.73;;;9.10;99.90;;;;;;5132554;27;20692;-66
2022/09/07 00:17:22;;;;;;;35.87;19.37;;;9.00;99.90;;;;;;5133387;27;20209;-65
2022/09/07 00:19:49;;;;;;;33.37;19.40;;;9.00;99.90;;;;;;5133446;27;20195;-66
2022/09/07 00:22:16;;;;;;;32.77;18.90;;;9.00;99.90;;;;;;5133453;27;20229;-67
2022/09/07 00:24:42;;;;;;;32.80;18.83;;;9.00;99.90;;;;;;5133142;27;20207;-67
2022/09/07 00:27:10;;;;;;;34.17;19.03;;;9.00;99.90;;;;;;5132544;27;20198;-66
2022/09/07 00:29:36;;;;;;;33.27;17.93;;;8.90;99.90;;;;;;5132317;27;20645;-66
2022/09/07 00:32:04;;;;;;;33.90;18.17;;;8.90;99.90;;;;;;5133371;27;20203;-66
2022/09/07 00:34:32;;;;;;;34.83;18.87;;;8.90;99.90;;;;;;5133252;27;20678;-67
2022/09/07 00:36:59;;;;;;;35.87;17.47;;;8.90;99.90;;;;;;5133608;27;20654;-67
2022/09/07 00:39:26;;;;;;;32.43;16.90;;;8.80;99.90;;;;;;5133251;27;20815;-66
2022/09/07 00:41:53;;;;;;;28.20;16.97;;;8.80;99.90;;;;;;5133048;27;20214;-66
2022/09/07 00:44:57;;;;;;;24.90;15.03;;;8.80;99.90;;;;;;5131811;27;20198;-66
2022/09/07 00:47:28;;;;;;;27.17;15.30;;;8.80;99.90;;;;;;5132999;27;20183;-67
2022/09/07 00:50:02;;;;;;;26.00;14.73;;;8.70;99.90;;;;;;5132791;27;20209;-66
2022/09/07 00:52:31;;;;;;;23.83;13.50;;;8.70;99.90;;;;;;5131907;27;20195;-65
2022/09/07 00:55:02;;;;;;;27.00;14.67;;;8.70;99.90;;;;;;5133111;27;20203;-66
2022/09/07 00:57:29;;;;;;;23.70;14.13;;;8.70;99.90;;;;;;5133037;27;20645;-67
2022/09/07 00:59:57;;;;;;;25.73;14.60;;;8.60;99.90;;;;;;5133236;27;20205;-66
2022/09/07 01:02:25;;;;;;;26.93;15.27;;;8.60;99.90;;;;;;5127121;27;20198;-66
2022/09/07 01:04:57;;;;;;;28.40;14.47;;;8.60;99.90;;;;;;5133260;27;20670;-67
2022/09/07 01:07:25;;;;;;;25.73;14.33;;;8.60;99.90;;;;;;5133028;27;20190;-66
2022/09/07 01:09:52;;;;;;;28.57;13.90;;;8.60;99.90;;;;;;5132682;27;20227;-67
2022/09/07 01:12:19;;;;;;;24.70;13.67;;;8.50;99.90;;;;;;5133107;27;20203;-66
2022/09/07 01:14:50;;;;;;;23.83;12.47;;;8.50;99.90;;;;;;5132653;27;20206;-64
2022/09/07 01:17:25;;;;;;;24.50;14.03;;;8.50;99.90;;;;;;5130583;27;20221;-66
2022/09/07 01:20:30;;;;;;;24.63;15.13;;;8.50;99.90;;;;;;5132613;27;20186;-67
2022/09/07 01:23:26;;;;;;;23.33;13.70;;;8.50;99.90;;;;;;5132837;28;20186;-67
2022/09/07 01:26:08;;;;;;;23.27;13.50;;;8.40;99.90;;;;;;5132712;27;20209;-66
2022/09/07 01:28:37;;;;;;;23.83;14.10;;;8.40;99.90;;;;;;5136093;27;20241;-66
2022/09/07 01:31:13;;;;;;;27.57;14.47;;;8.40;99.90;;;;;;5136054;27;20198;-67
2022/09/07 01:33:53;;;;;;;23.90;13.37;;;8.40;99.90;;;;;;5136813;27;20618;-66
2022/09/07 01:36:28;;;;;;;23.73;13.40;;;8.40;99.90;;;;;;5136510;27;20653;-64
2022/09/07 01:38:57;;;;;;;20.83;12.87;;;8.30;99.90;;;;;;5136811;27;20187;-65
2022/09/07 01:41:30;;;;;;;26.63;14.27;;;8.30;99.90;;;;;;5136173;27;20234;-64
2022/09/07 01:44:04;;;;;;;25.17;13.43;;;8.30;99.90;;;;;;5136435;27;20196;-65
2022/09/07 01:46:37;;;;;;;22.80;13.23;;;8.30;99.90;;;;;;5134986;27;20209;-66
2022/09/07 01:49:10;;;;;;;26.20;13.80;;;8.20;99.90;;;;;;5136557;27;20659;-65
2022/09/07 01:51:43;;;;;;;24.50;13.93;;;8.20;99.90;;;;;;5136513;27;20191;-66
2022/09/07 01:54:16;;;;;;;18.83;12.13;;;8.20;99.90;;;;;;5136720;27;20191;-65
2022/09/07 01:56:46;;;;;;;22.43;12.70;;;8.20;99.90;;;;;;5133901;27;20289;-65
2022/09/07 01:59:19;;;;;;;19.43;11.67;;;8.10;99.90;;;;;;5136368;27;20189;-66
2022/09/07 02:01:51;;;;;;;21.27;10.80;;;8.10;99.90;;;;;;5136472;27;20515;-66
2022/09/07 02:04:21;;;;;;;19.37;11.63;;;8.10;99.90;;;;;;5136152;27;20187;-66
2022/09/07 02:06:52;;;;;;;16.77;10.27;;;8.00;99.90;;;;;;5136049;27;20195;-67
2022/09/07 02:09:25;;;;;;;18.47;11.33;;;8.00;99.90;;;;;;5135881;27;20233;-65
2022/09/07 02:11:53;;;;;;;19.47;11.47;;;8.00;99.90;;;;;;5135299;27;20199;-65
2022/09/07 02:14:25;;;;;;;20.93;12.17;;;8.00;99.90;;;;;;5135933;27;20207;-67
2022/09/07 02:16:56;;;;;;;25.67;13.63;;;8.00;99.90;;;;;;5136279;27;20194;-67
2022/09/07 02:19:27;;;;;;;23.07;12.93;;;8.00;99.90;;;;;;5136019;27;20186;-67
2022/09/07 02:21:59;;;;;;;24.30;13.93;;;7.90;99.90;;;;;;5135929;27;20581;-67
2022/09/07 02:24:30;;;;;;;24.23;14.47;;;7.90;99.90;;;;;;5135992;27;20654;-67
2022/09/07 02:26:59;;;;;;;23.30;13.90;;;7.80;99.90;;;;;;5135532;27;20206;-67
2022/09/07 02:29:27;;;;;;;24.37;13.73;;;7.80;99.90;;;;;;5135296;27;20235;-66
2022/09/07 02:31:54;;;;;;;25.20;14.70;;;7.70;99.90;;;;;;5135900;27;20551;-68
2022/09/07 02:34:20;;;;;;;23.00;13.97;;;7.70;99.90;;;;;;5135312;27;20218;-67
2022/09/07 02:36:51;;;;;;;22.83;14.47;;;7.60;99.90;;;;;;5135598;27;20653;-67
2022/09/07 02:39:18;;;;;;;22.23;13.57;;;7.60;99.90;;;;;;5135007;27;20201;-68
2022/09/07 02:41:46;;;;;;;25.00;14.43;;;7.60;99.90;;;;;;5131383;27;20545;-67
2022/09/07 02:44:18;;;;;;;24.37;14.07;;;7.60;99.90;;;;;;5135281;27;20199;-68
2022/09/07 02:47:00;;;;;;;24.77;14.67;;;7.60;99.90;;;;;;5134368;27;20209;-66
2022/09/07 02:49:43;;;;;;;27.37;15.07;;;7.50;99.90;;;;;;5134587;27;20749;-65
2022/09/07 02:52:19;;;;;;;30.23;15.83;;;7.50;99.90;;;;;;5135188;27;20187;-66
2022/09/07 02:54:58;;;;;;;26.27;15.60;;;7.40;99.90;;;;;;5135423;27;20194;-66
2022/09/07 02:57:35;;;;;;;30.50;16.07;;;7.30;99.90;;;;;;5135291;27;20928;-66
2022/09/07 03:00:07;;;;;;;30.57;16.47;;;7.30;99.90;;;;;;5135572;27;20183;-67
2022/09/07 03:02:46;;;;;;;28.70;16.23;;;7.20;99.90;;;;;;5133088;27;20231;-68
2022/09/07 03:05:20;;;;;;;24.50;14.70;;;7.20;99.90;;;;;;5135278;27;20191;-66
2022/09/07 03:07:52;;;;;;;26.03;13.70;;;7.20;99.90;;;;;;5135337;27;20218;-66
2022/09/07 03:10:19;;;;;;;19.27;12.20;;;7.20;99.90;;;;;;5134820;27;20219;-67
2022/09/07 03:12:49;;;;;;;18.23;9.43;;;7.20;99.90;;;;;;5135280;27;20225;-67
2022/09/07 03:15:18;;;;;;;15.50;8.93;;;7.20;99.90;;;;;;5134856;27;20659;-65
2022/09/07 03:17:47;;;;;;;18.17;9.07;;;7.20;99.90;;;;;;5133951;27;20647;-67
2022/09/07 03:20:15;;;;;;;15.10;8.47;;;7.30;99.90;;;;;;5134750;27;20202;-66
2022/09/07 03:22:42;;;;;;;12.67;7.83;;;7.30;99.90;;;;;;5134826;27;20656;-66
2022/09/07 03:25:09;;;;;;;14.30;8.50;;;7.30;99.90;;;;;;5134443;27;20558;-67
2022/09/07 03:27:36;;;;;;;17.20;9.30;;;7.30;99.90;;;;;;5134704;27;20564;-65
2022/09/07 03:30:04;;;;;;;13.13;7.73;;;7.30;99.90;;;;;;5134279;27;20604;-67
2022/09/07 03:32:32;;;;;;;14.17;8.07;;;7.40;99.90;;;;;;5131297;27;20199;-68
2022/09/07 03:35:01;;;;;;;15.80;8.53;;;7.40;99.90;;;;;;5134551;27;20225;-66
2022/09/07 03:37:29;;;;;;;13.73;7.73;;;7.40;99.90;;;;;;5134606;27;20751;-65
2022/09/07 03:39:55;;;;;;;14.10;8.13;;;7.40;99.90;;;;;;5134701;27;20625;-65
2022/09/07 03:42:22;;;;;;;14.23;8.20;;;7.50;99.90;;;;;;5132045;27;20244;-66
2022/09/07 03:44:49;;;;;;;15.93;8.63;;;7.50;99.90;;;;;;5133488;27;20203;-67
2022/09/07 03:47:16;;;;;;;17.40;9.00;;;7.50;99.90;;;;;;5134147;27;20198;-67
2022/09/07 03:49:43;;;;;;;13.80;8.57;;;7.50;99.90;;;;;;5133429;27;20279;-68
2022/09/07 03:52:11;;;;;;;13.03;8.27;;;7.60;99.90;;;;;;5133872;27;20212;-66
2022/09/07 03:54:38;;;;;;;14.17;8.47;;;7.60;99.90;;;;;;5134090;27;20591;-65
2022/09/07 03:57:05;;;;;;;14.23;8.40;;;7.60;99.90;;;;;;5131903;27;20545;-65
2022/09/07 03:59:32;;;;;;;15.33;8.37;;;7.60;99.90;;;;;;5133665;27;20205;-66
2022/09/07 04:01:59;;;;;;;12.37;8.23;;;7.60;99.90;;;;;;5133460;27;20206;-66
2022/09/07 04:04:25;;;;;;;14.43;9.03;;;7.60;99.90;;;;;;5133807;27;20222;-66
2022/09/07 04:06:52;;;;;;;13.93;8.37;;;7.70;99.90;;;;;;5122478;27;20573;-66
2022/09/07 04:09:20;;;;;;;13.53;8.17;;;7.70;99.90;;;;;;5133423;27;20252;-66
2022/09/07 04:11:47;;;;;;;13.50;8.40;;;7.70;99.90;;;;;;5133761;27;20206;-66
2022/09/07 04:14:14;;;;;;;16.53;9.40;;;7.70;99.90;;;;;;5131900;27;20337;-67
2022/09/07 04:16:43;;;;;;;14.87;8.10;;;7.70;99.90;;;;;;5131549;27;20210;-66
2022/09/07 04:19:10;;;;;;;14.87;8.10;;;7.80;99.90;;;;;;5131725;27;20210;-66
2022/09/07 04:21:37;;;;;;;13.30;7.90;;;7.80;99.90;;;;;;5132361;27;20194;-66
2022/09/07 04:24:04;;;;;;;14.03;8.27;;;7.90;99.90;;;;;;5130446;27;20199;-67
2022/09/07 04:26:34;;;;;;;11.90;7.27;;;7.90;99.90;;;;;;5133080;27;20541;-67
2022/09/07 04:29:01;;;;;;;12.07;7.50;;;8.00;99.90;;;;;;5132614;27;20237;-68
2022/09/07 04:31:28;;;;;;;11.03;7.37;;;8.00;99.90;;;;;;5131016;27;20359;-66
2022/09/07 04:33:55;;;;;;;12.43;7.27;;;8.00;99.90;;;;;;5133215;27;20836;-67
2022/09/07 04:36:23;;;;;;;11.67;6.97;;;8.10;99.90;;;;;;5132269;27;20206;-65
2022/09/07 04:38:54;;;;;;;11.37;7.20;;;8.10;99.90;;;;;;5131165;27;20202;-66
2022/09/07 04:41:21;;;;;;;12.13;6.93;;;8.20;99.90;;;;;;5133353;27;20219;-67
2022/09/07 04:43:53;;;;;;;16.13;6.57;;;8.20;99.90;;;;;;5133177;27;20206;-67
2022/09/07 04:46:23;;;;;;;9.47;6.27;;;8.30;99.90;;;;;;5132933;27;20194;-67
2022/09/07 04:48:50;;;;;;;11.17;6.60;;;8.40;99.90;;;;;;5133358;27;20272;-66
2022/09/07 04:51:18;;;;;;;11.87;7.50;;;8.40;99.90;;;;;;5132052;27;20245;-67
2022/09/07 04:53:48;;;;;;;13.33;7.80;;;8.40;99.90;;;;;;5119022;27;20198;-67
2022/09/07 04:56:15;;;;;;;13.17;7.63;;;8.50;99.90;;;;;;5145774;27;20297;-65
2022/09/07 04:58:42;;;;;;;12.30;6.90;;;8.50;99.90;;;;;;5133562;27;20586;-65
2022/09/07 05:01:12;;;;;;;12.47;7.10;;;8.60;99.90;;;;;;5131440;27;20202;-64
2022/09/07 05:03:39;;;;;;;13.00;7.70;;;8.50;99.90;;;;;;5133432;27;20198;-64
2022/09/07 05:06:07;;;;;;;13.53;7.73;;;8.60;99.90;;;;;;5132750;27;20199;-66
2022/09/07 05:08:36;;;;;;;12.27;6.83;;;8.60;99.90;;;;;;5133007;27;20668;-65
2022/09/07 05:11:03;;;;;;;11.70;7.60;;;8.70;99.90;;;;;;5132893;27;20215;-66
2022/09/07 05:13:31;;;;;;;13.17;7.80;;;8.70;99.90;;;;;;5149289;27;20207;-68
2022/09/07 05:15:58;;;;;;;16.00;8.67;;;8.80;99.90;;;;;;5135581;27;20206;-66
2022/09/07 05:18:27;;;;;;;13.90;8.27;;;8.90;99.90;;;;;;5132751;28;20210;-66
2022/09/07 05:20:53;;;;;;;15.90;9.00;;;8.90;99.90;;;;;;5126546;28;20205;-64
2022/09/07 05:23:22;;;;;;;13.37;8.30;;;9.00;99.90;;;;;;5132612;28;20206;-64
2022/09/07 05:25:49;;;;;;;14.13;8.13;;;9.00;99.90;;;;;;5132662;28;20218;-65
2022/09/07 05:28:16;;;;;;;17.33;8.23;;;9.10;99.90;;;;;;5132421;28;20237;-65
2022/09/07 05:30:43;;;;;;;14.13;8.40;;;9.10;99.90;;;;;;5128578;28;20229;-65
2022/09/07 05:33:10;;;;;;;13.67;8.10;;;9.20;99.90;;;;;;5122991;28;20666;-65
2022/09/07 05:35:38;;;;;;;11.87;7.83;;;9.30;99.90;;;;;;5122946;28;20229;-66
2022/09/07 05:38:05;;;;;;;13.90;8.10;;;9.30;99.90;;;;;;5120583;28;20205;-66
2022/09/07 05:40:32;;;;;;;16.70;8.90;;;9.40;99.90;;;;;;5121796;28;20199;-65
2022/09/07 05:42:59;;;;;;;13.17;8.10;;;9.50;99.90;;;;;;5127106;28;20659;-66
2022/09/07 05:45:26;;;;;;;14.53;7.90;;;9.50;99.90;;;;;;5132620;28;20681;-65
2022/09/07 05:47:54;;;;;;;12.90;7.80;;;9.60;99.90;;;;;;5132133;28;20236;-68
2022/09/07 05:50:21;;;;;;;12.37;7.77;;;9.70;99.90;;;;;;5132161;28;20237;-66
2022/09/07 05:52:49;;;;;;;13.43;7.97;;;9.70;99.90;;;;;;5127115;28;20877;-66
2022/09/07 05:55:16;;;;;;;15.17;8.37;;;9.80;99.90;;;;;;5130183;28;20199;-66
2022/09/07 05:57:43;;;;;;;18.43;7.83;;;9.90;99.90;;;;;;5132435;28;20557;-66
2022/09/07 06:00:13;;;;;;;13.73;7.83;;;10.00;99.90;;;;;;5132333;28;20209;-65
2022/09/07 06:02:40;;;;;;;12.47;7.87;;;10.10;99.90;;;;;;5132098;27;20214;-65
2022/09/07 06:05:07;;;;;;;13.30;8.13;;;10.20;99.90;;;;;;5131243;28;20202;-66
2022/09/07 06:07:34;;;;;;;12.13;7.77;;;10.20;99.90;;;;;;5132649;27;20199;-65
2022/09/07 06:10:03;;;;;;;11.83;7.80;;;10.30;99.90;;;;;;5128494;28;20210;-65
2022/09/07 06:12:29;;;;;;;17.83;10.07;;;10.40;99.90;;;;;;5132702;27;20701;-66
2022/09/07 06:14:56;;;;;;;16.03;8.40;;;10.50;99.90;;;;;;5136080;27;20199;-65
2022/09/07 06:17:23;;;;;;;13.10;7.93;;;10.60;99.90;;;;;;5136243;27;20202;-65
2022/09/07 06:19:50;;;;;;;12.87;7.77;;;10.70;99.90;;;;;;5135961;27;20233;-66
2022/09/07 06:22:17;;;;;;;14.47;8.10;;;10.80;99.90;;;;;;5133522;27;20230;-65
2022/09/07 06:24:43;;;;;;;14.50;7.63;;;10.90;99.90;;;;;;5135281;27;20285;-67
2022/09/07 06:27:12;;;;;;;16.33;8.50;;;10.90;99.90;;;;;;5134654;27;20219;-66
2022/09/07 06:29:38;;;;;;;14.57;7.73;;;11.00;99.90;;;;;;5133875;27;20234;-65
2022/09/07 06:32:05;;;;;;;12.07;7.13;;;11.10;99.90;;;;;;5135729;27;20222;-68
2022/09/07 06:34:32;;;;;;;17.23;7.60;;;11.20;99.90;;;;;;5136021;27;20199;-66
2022/09/07 06:36:59;;;;;;;10.13;6.20;;;11.30;99.90;;;;;;5135092;27;20211;-66
2022/09/07 06:39:26;;;;;;;11.53;7.23;;;11.40;99.90;;;;;;5135601;27;20229;-66
2022/09/07 06:41:52;;;;;;;12.53;7.17;;;11.50;99.90;;;;;;5135642;27;20202;-66
2022/09/07 06:44:20;;;;;;;13.27;6.97;;;11.60;99.90;;;;;;5134518;27;20203;-66
2022/09/07 06:46:47;;;;;;;10.07;6.47;;;11.70;99.90;;;;;;5135570;27;20203;-65
2022/09/07 06:49:14;;;;;;;11.00;6.23;;;11.80;99.90;;;;;;5129029;27;20191;-65
2022/09/07 06:51:41;;;;;;;12.63;6.63;;;11.90;99.90;;;;;;5123210;27;20212;-67
2022/09/07 06:54:09;;;;;;;10.40;6.57;;;12.00;99.90;;;;;;5128962;27;20191;-69
2022/09/07 06:56:36;;;;;;;11.47;6.37;;;12.10;99.90;;;;;;5128683;27;20196;-65
2022/09/07 06:59:02;;;;;;;12.13;6.43;;;12.20;99.90;;;;;;5126122;27;20218;-66
2022/09/07 07:01:32;;;;;;;10.77;6.20;;;12.30;99.90;;;;;;5132523;27;20198;-65
2022/09/07 07:04:00;;;;;;;8.70;5.97;;;12.40;99.90;;;;;;5134138;27;20190;-65
2022/09/07 07:06:34;;;;;;;10.67;6.10;;;12.50;99.90;;;;;;5133139;27;20191;-67
2022/09/07 07:09:01;;;;;;;8.87;5.90;;;12.60;99.90;;;;;;5133590;27;20207;-66
2022/09/07 07:11:29;;;;;;;9.30;5.83;;;12.70;99.90;;;;;;5130945;27;20218;-67
2022/09/07 07:13:56;;;;;;;8.87;5.73;;;12.80;99.90;;;;;;5134221;27;20202;-69
2022/09/07 07:16:23;;;;;;;12.10;5.77;;;12.90;99.90;;;;;;5133745;27;20605;-65
2022/09/07 07:18:55;;;;;;;8.40;5.40;;;13.00;99.90;;;;;;5132960;27;20203;-66
2022/09/07 07:21:22;;;;;;;11.57;5.20;;;13.10;99.90;;;;;;5131378;27;20586;-67
2022/09/07 07:23:50;;;;;;;12.03;5.07;;;13.20;99.90;;;;;;5122448;27;20551;-65
2022/09/07 07:26:18;;;;;;;9.23;4.53;;;13.20;99.90;;;;;;5131911;27;20218;-67
2022/09/07 07:28:46;;;;;;;9.05;5.15;;;13.40;99.90;;;;;;5134402;27;20427;-65
2022/09/07 07:31:14;;;;;;;6.83;3.93;;;13.40;99.90;;;;;;5135458;27;20261;-67
2022/09/07 07:33:41;;;;;;;8.33;3.90;;;13.50;99.90;;;;;;5131925;27;20211;-66
2022/09/07 07:36:14;;;;;;;10.50;6.27;;;13.60;99.90;;;;;;5135333;27;20608;-66
2022/09/07 07:38:42;;;;;;;6.43;4.23;;;13.70;99.90;;;;;;5134571;27;20187;-65
2022/09/07 07:41:09;;;;;;;10.50;3.80;;;13.80;99.90;;;;;;5135273;27;20225;-67
2022/09/07 07:43:36;;;;;;;5.47;3.40;;;13.90;99.90;;;;;;5134919;27;20199;-67
2022/09/07 07:46:03;;;;;;;4.67;3.33;;;14.00;99.90;;;;;;5134449;27;20210;-65
2022/09/07 07:48:30;;;;;;;4.50;3.13;;;14.10;99.90;;;;;;5133346;27;20823;-67
2022/09/07 07:50:59;;;;;;;5.57;3.27;;;14.10;99.80;;;;;;5134556;27;20691;-67
2022/09/07 07:53:28;;;;;;;4.87;3.30;;;14.20;99.20;;;;;;5130970;27;20206;-66
2022/09/07 07:55:58;;;;;;;5.90;2.93;;;14.30;98.80;;;;;;5136584;27;20668;-66
2022/09/07 07:58:25;;;;;;;5.53;3.10;;;14.40;98.30;;;;;;5134626;27;20202;-66
2022/09/07 08:00:52;;;;;;;5.13;2.57;;;14.40;98.00;;;;;;5133664;27;20669;-68
2022/09/07 08:03:19;;;;;;;3.67;2.67;;;14.50;97.70;;;;;;5134419;27;20218;-66
2022/09/07 08:05:46;;;;;;;5.03;3.03;;;14.60;97.70;;;;;;5133932;27;20209;-67
2022/09/07 08:08:14;;;;;;;6.87;3.40;;;14.60;96.90;;;;;;5134127;27;20229;-66
2022/09/07 08:10:42;;;;;;;4.30;2.70;;;14.70;96.90;;;;;;5133675;27;20207;-66
2022/09/07 08:13:09;;;;;;;2.50;2.10;;;14.70;95.90;;;;;;5134418;27;20202;-66
2022/09/07 08:15:43;;;;;;;3.07;2.10;;;14.70;95.30;;;;;;5130671;27;20205;-66
2022/09/07 08:18:10;;;;;;;3.53;2.33;;;14.70;94.90;;;;;;5131393;27;20218;-69
2022/09/07 08:20:37;;;;;;;2.87;2.10;;;14.70;94.80;;;;;;5133440;27;20199;-68
2022/09/07 08:23:03;;;;;;;4.73;2.20;;;14.70;94.60;;;;;;5131502;27;20328;-69
2022/09/07 08:25:31;;;;;;;4.70;2.10;;;14.80;95.30;;;;;;5132348;27;20205;-68
2022/09/07 08:27:59;;;;;;;3.27;2.20;;;14.90;95.90;;;;;;5133619;27;20710;-68
2022/09/07 08:30:26;;;;;;;3.40;2.17;;;14.90;94.50;;;;;;5132646;27;20222;-68
2022/09/07 08:32:53;;;;;;;2.67;1.63;;;15.00;94.40;;;;;;5131390;27;20215;-70
2022/09/07 08:35:19;;;;;;;3.30;2.30;;;15.00;93.30;;;;;;5131360;27;20206;-69
2022/09/07 08:37:46;;;;;;;5.70;2.10;;;15.00;92.80;;;;;;5133383;27;20205;-69
2022/09/07 08:40:16;;;;;;;3.93;2.10;;;15.00;93.00;;;;;;5119772;27;20209;-69
2022/09/07 08:42:58;;;;;;;2.80;2.40;;;15.00;93.10;;;;;;5133105;27;20203;-69
2022/09/07 08:45:30;;;;;;;4.43;2.20;;;15.00;92.80;;;;;;5130315;27;20203;-69
2022/09/07 08:47:58;;;;;;;4.83;2.40;;;15.10;93.20;;;;;;5132595;27;20194;-67
2022/09/07 08:50:30;;;;;;;3.80;2.10;;;15.20;92.60;;;;;;5126369;27;20203;-70
2022/09/07 08:53:01;;;;;;;3.90;2.40;;;15.20;92.40;;;;;;5119922;27;20212;-70
2022/09/07 08:55:31;;;;;;;3.97;2.47;;;15.20;92.50;;;;;;5130653;27;20206;-69
2022/09/07 08:58:05;;;;;;;7.43;2.50;;;15.20;91.80;;;;;;5128380;27;20202;-69
2022/09/07 09:00:34;;;;;;;5.53;2.80;;;15.20;92.30;;;;;;5132978;27;20186;-66
2022/09/07 09:03:02;;;;;;;5.97;2.60;;;15.30;92.70;;;;;;5132789;27;20248;-69
2022/09/07 09:05:47;;;;;;;4.93;2.47;;;15.30;92.40;;;;;;5130108;27;20207;-68
2022/09/07 09:08:27;;;;;;;5.07;2.57;;;15.40;92.40;;;;;;5133704;27;20254;-68
2022/09/07 09:11:02;;;;;;;3.80;2.60;;;15.50;92.30;;;;;;5133285;27;20556;-67
2022/09/07 09:13:42;;;;;;;7.83;2.53;;;15.50;92.10;;;;;;5131178;27;20556;-68
2022/09/07 09:16:16;;;;;;;3.80;2.47;;;15.60;91.80;;;;;;5112987;28;20197;-67
2022/09/07 09:19:00;;;;;;;7.00;3.10;;;15.60;92.00;;;;;;5128589;28;20203;-69
2022/09/07 09:21:27;;;;;;;6.77;2.60;;;15.60;92.10;;;;;;5130995;28;20209;-67
2022/09/07 09:24:00;;;;;;;6.13;2.77;;;15.60;91.60;;;;;;5129174;28;20223;-69
2022/09/07 09:26:28;;;;;;;8.87;3.13;;;15.60;91.90;;;;;;5131421;28;20195;-70
2022/09/07 09:28:56;;;;;;;3.87;2.70;;;15.60;92.10;;;;;;5131183;28;20717;-68
2022/09/07 09:31:28;;;;;;;5.30;2.90;;;15.70;92.00;;;;;;5131451;28;20253;-66
2022/09/07 09:34:08;;;;;;;6.23;2.57;;;15.80;91.50;;;;;;5131975;28;20195;-67
2022/09/07 09:36:40;;;;;;;4.80;2.70;;;15.80;91.90;;;;;;5132309;27;20204;-67
2022/09/07 09:39:28;;;;;;;6.67;3.20;;;15.90;92.00;;;;;;5131849;28;20191;-68
2022/09/07 09:41:57;;;;;;;5.53;2.90;;;15.90;91.10;;;;;;5112437;28;20193;-68
2022/09/07 09:44:31;;;;;;;4.90;2.90;;;15.90;91.30;;;;;;5124761;28;20199;-66
2022/09/07 09:46:59;;;;;;;4.67;2.70;;;15.90;91.20;;;;;;5131436;27;20222;-66
2022/09/07 09:49:32;;;;;;;4.20;2.90;;;15.90;91.00;;;;;;5136641;27;20203;-67
2022/09/07 09:52:02;;;;;;;8.97;3.13;;;16.00;91.00;;;;;;5137313;27;20689;-67
2022/09/07 09:54:33;;;;;;;6.23;3.10;;;16.00;91.30;;;;;;5137054;27;20286;-66
2022/09/07 09:57:00;;;;;;;4.67;2.87;;;16.00;90.90;;;;;;5137270;27;20191;-65
2022/09/07 09:59:28;;;;;;;6.70;3.60;;;16.10;91.40;;;;;;5136482;27;20690;-67
2022/09/07 10:01:56;;;;;;;5.47;3.00;;;16.20;91.70;;;;;;5137081;27;20814;-67
2022/09/07 10:04:32;;;;;;;5.93;2.77;;;16.30;91.40;;;;;;5136819;27;20199;-67
2022/09/07 10:07:06;;;;;;;4.67;2.70;;;16.30;90.70;;;;;;5136675;27;20195;-66
2022/09/07 10:09:36;;;;;;;6.87;2.77;;;16.30;90.50;;;;;;5136013;27;20267;-67
2022/09/07 10:12:05;;;;;;;4.50;2.60;;;16.30;90.70;;;;;;5136558;27;20660;-66
2022/09/07 10:14:35;;;;;;;4.37;2.80;;;16.40;90.70;;;;;;5136395;27;20204;-65
2022/09/07 10:17:11;;;;;;;6.20;2.70;;;16.40;90.60;;;;;;5136614;27;20203;-69
2022/09/07 10:19:41;;;;;;;4.87;2.50;;;16.40;90.30;;;;;;5136744;27;20529;-69
2022/09/07 10:22:23;;;;;;;5.10;2.70;;;16.40;90.40;;;;;;5136177;27;20183;-67
2022/09/07 10:24:51;;;;;;;5.07;2.60;;;16.50;90.00;;;;;;5136708;27;20632;-67
2022/09/07 10:27:30;;;;;;;5.03;2.57;;;16.50;89.50;;;;;;5135640;27;20564;-70
2022/09/07 10:29:57;;;;;;;5.40;2.80;;;16.50;89.80;;;;;;5136270;27;20188;-68
2022/09/07 10:32:32;;;;;;;3.77;2.63;;;16.50;90.20;;;;;;5135800;27;21008;-69
2022/09/07 10:35:14;;;;;;;2.93;2.00;;;16.60;90.60;;;;;;5136346;27;20194;-67
2022/09/07 10:37:51;;;;;;;7.10;3.00;;;16.60;89.10;;;;;;5136663;27;20192;-67
2022/09/07 10:40:29;;;;;;;5.10;2.50;;;16.70;88.50;;;;;;5135532;27;20278;-69
2022/09/07 10:43:10;;;;;;;4.13;3.00;;;16.70;90.00;;;;;;5135979;27;20644;-68
2022/09/07 10:45:45;;;;;;;5.37;2.43;;;16.80;90.10;;;;;;5135797;27;20191;-68
2022/09/07 10:48:19;;;;;;;4.70;2.30;;;16.80;89.10;;;;;;5135101;27;20187;-69
2022/09/07 10:50:51;;;;;;;3.77;2.60;;;16.80;88.00;;;;;;5135739;27;20260;-68
2022/09/07 10:53:38;;;;;;;5.10;3.10;;;16.90;88.50;;;;;;5135233;27;20224;-69
2022/09/07 10:56:09;;;;;;;5.33;2.80;;;17.00;88.80;;;;;;5135063;27;20184;-69
2022/09/07 10:59:00;;;;;;;4.90;3.27;;;17.00;89.30;;;;;;5135634;27;20228;-69
2022/09/07 11:01:36;;;;;;;6.23;3.10;;;17.10;90.00;;;;;;5135388;27;20204;-69
2022/09/07 11:04:18;;;;;;;3.87;3.23;;;17.20;89.90;;;;;;5135143;27;20193;-68
2022/09/07 11:06:51;;;;;;;4.70;2.70;;;17.30;88.00;;;;;;5135468;27;20190;-67
2022/09/07 11:09:47;;;;;;;3.40;2.47;;;17.10;86.10;;;;;;5135104;27;20189;-68
2022/09/07 11:12:18;;;;;;;7.93;4.80;;;17.00;86.50;;;;;;5134945;27;20232;-68
2022/09/07 11:14:49;;;;;;;4.43;2.80;;;17.00;87.10;;;;;;5135236;27;20199;-68
2022/09/07 11:17:21;;;;;;;3.97;2.70;;;17.10;86.50;;;;;;5134907;27;20648;-70
2022/09/07 11:19:55;;;;;;;4.10;2.30;;;17.20;86.20;;;;;;5135180;27;20199;-70
2022/09/07 11:22:31;;;;;;;3.60;2.20;;;17.20;86.30;;;;;;5134764;27;20191;-71
2022/09/07 11:25:06;;;;;;;3.97;2.33;;;17.30;86.10;;;;;;5135053;27;20596;-68
2022/09/07 11:27:39;;;;;;;3.10;2.20;;;17.40;85.90;;;;;;5135209;27;20192;-70
2022/09/07 11:30:17;;;;;;;3.63;2.13;;;17.40;86.50;;;;;;5135053;27;20555;-67
2022/09/07 11:32:53;;;;;;;4.23;3.03;;;17.50;87.00;;;;;;5134893;27;20749;-69
2022/09/07 11:35:31;;;;;;;4.23;2.27;;;17.50;88.00;;;;;;5134656;27;20239;-67
2022/09/07 11:38:05;;;;;;;4.60;2.30;;;17.60;86.60;;;;;;5134835;27;20295;-68
2022/09/07 11:40:36;;;;;;;4.17;2.33;;;17.60;85.30;;;;;;5134884;27;20623;-68
2022/09/07 11:43:12;;;;;;;3.83;2.57;;;17.70;85.40;;;;;;5134613;27;20188;-68
2022/09/07 11:45:43;;;;;;;6.13;2.73;;;17.60;83.60;;;;;;5135107;27;20200;-68
2022/09/07 11:48:16;;;;;;;3.30;2.30;;;17.50;85.00;;;;;;5134508;27;20198;-67
2022/09/07 11:50:46;;;;;;;4.83;2.50;;;17.50;84.90;;;;;;5134535;27;20529;-69
2022/09/07 11:53:18;;;;;;;4.80;2.40;;;17.50;84.70;;;;;;5134074;27;20215;-69
2022/09/07 11:55:48;;;;;;;3.43;2.40;;;17.50;84.90;;;;;;5133804;27;20194;-69
2022/09/07 11:58:37;;;;;;;5.17;2.70;;;17.50;85.50;;;;;;5134559;27;20189;-70
2022/09/07 12:01:16;;;;;;;3.47;2.00;;;17.60;86.00;;;;;;5134077;27;20296;-69
2022/09/07 12:04:08;;;;;;;4.33;2.20;;;17.70;86.60;;;;;;5134358;27;20193;-67
2022/09/07 12:07:07;;;;;;;3.63;2.40;;;17.70;86.00;;;;;;5134590;27;20603;-68
2022/09/07 12:09:53;;;;;;;3.70;2.13;;;17.70;83.00;;;;;;5135019;27;20193;-71
2022/09/07 12:12:43;;;;;;;2.97;2.10;;;17.60;83.10;;;;;;5134455;27;20212;-70
2022/09/07 12:15:23;;;;;;;3.50;2.27;;;17.60;84.80;;;;;;5134331;27;20196;-70
2022/09/07 12:18:06;;;;;;;3.93;2.37;;;17.70;84.90;;;;;;5133864;27;20199;-70
2022/09/07 12:20:40;;;;;;;6.20;2.40;;;17.70;84.20;;;;;;5134393;27;20192;-68
2022/09/07 12:23:20;;;;;;;7.37;3.20;;;17.80;83.30;;;;;;5133919;27;20199;-69
2022/09/07 12:25:51;;;;;;;8.27;2.70;;;17.80;84.40;;;;;;5134185;27;20196;-68
2022/09/07 12:28:56;;;;;;;4.83;2.80;;;17.80;84.90;;;;;;5133665;27;20298;-68
2022/09/07 12:31:43;;;;;;;5.37;3.27;;;17.80;82.40;;;;;;5133647;27;20575;-68
2022/09/07 12:34:39;;;;;;;5.30;2.90;;;17.70;82.70;;;;;;5133675;27;20208;-69
2022/09/07 12:37:34;;;;;;;7.90;2.90;;;17.70;83.90;;;;;;5085814;27;20209;-68
2022/09/07 12:40:34;;;;;;;4.57;2.47;;;17.80;83.30;;;;;;5133947;27;20187;-69
2022/09/07 12:43:33;;;;;;;6.30;4.03;;;17.80;83.00;;;;;;5133453;27;20201;-68
2022/09/07 12:46:00;;;;;;;3.67;2.30;;;17.90;83.60;;;;;;5133934;27;20189;-70
2022/09/07 12:48:45;;;;;;;6.57;2.90;;;17.90;83.50;;;;;;5133356;27;20204;-69
2022/09/07 12:51:23;;;;;;;6.37;2.97;;;17.90;83.10;;;;;;5133761;27;20193;-69
2022/09/07 12:53:59;;;;;;;4.50;2.37;;;17.90;83.10;;;;;;5133574;27;20603;-70
2022/09/07 12:56:38;;;;;;;4.53;2.50;;;17.90;83.40;;;;;;5133648;27;20190;-69
2022/09/07 12:59:26;;;;;;;3.73;2.60;;;18.00;83.60;;;;;;5133531;27;20364;-69
2022/09/07 13:02:00;;;;;;;7.33;2.90;;;18.10;83.70;;;;;;5133241;27;20195;-68
2022/09/07 13:04:50;;;;;;;5.50;2.80;;;18.10;83.40;;;;;;5133650;27;20194;-68